createdAt,value
2018-12-12T00:00:59.892Z,101521.92
2018-12-12T00:03:32.066Z,101523.03
2018-12-12T00:06:06.218Z,101517.06
2018-12-12T00:08:46.893Z,101499.33
2018-12-12T00:11:18.671Z,101518.18
2018-12-12T00:13:49.922Z,101522.83
2018-12-12T00:16:24.841Z,101521.73
2018-12-12T00:19:06.419Z,101472.53
2018-12-12T00:24:43.476Z,101521.25
2018-12-12T00:27:14.776Z,101527.22
2018-12-12T00:29:46.197Z,101526.97
2018-12-12T00:32:18.142Z,101523.17
2018-12-12T00:34:58.824Z,101539.50
2018-12-12T00:37:39.802Z,101527.84
2018-12-12T00:40:14.298Z,101527.31
2018-12-12T00:42:45.613Z,101517.78
2018-12-12T00:45:20.509Z,101512.88
2018-12-12T00:47:51.814Z,101513.19
2018-12-12T00:50:32.640Z,101516.75
2018-12-12T00:53:10.880Z,101512.66
2018-12-12T00:55:51.660Z,101500.43
2018-12-12T00:58:23.381Z,101504.79
2018-12-12T01:00:55.461Z,101505.34
2018-12-12T01:03:27.413Z,101505.06
2018-12-12T01:05:59.412Z,101498.81
2018-12-12T01:08:30.781Z,101501.00
2018-12-12T01:11:06.281Z,101502.92
2018-12-12T01:13:42.592Z,101502.92
2018-12-12T01:16:12.707Z,101503.75
2018-12-12T01:18:46.701Z,101505.95
2018-12-12T01:21:20.781Z,101507.87
2018-12-12T01:23:52.117Z,101517.41
2018-12-12T01:26:26.234Z,101512.51
2018-12-12T01:28:57.662Z,101526.72
2018-12-12T01:31:29.749Z,101525.07
2018-12-12T01:33:58.045Z,101520.45
2018-12-12T01:36:39.625Z,101516.64
2018-12-12T01:39:20.454Z,101516.10
2018-12-12T01:41:50.872Z,101515.02
2018-12-12T01:50:35.642Z,101516.70
2018-12-12T01:53:12.303Z,101518.06
2018-12-12T01:58:49.111Z,101522.43
2018-12-12T02:04:31.131Z,101533.08
2018-12-12T02:06:59.378Z,101528.73
2018-12-12T02:12:34.949Z,101521.11
2018-12-12T02:21:20.521Z,101541.55
2018-12-12T02:23:52.046Z,101547.84
2018-12-12T02:35:45.881Z,101538.30
2018-12-12T02:38:27.846Z,101544.59
2018-12-12T02:44:05.943Z,101546.23
2018-12-12T02:46:35.418Z,101542.14
2018-12-12T02:49:16.491Z,101541.08
2018-12-12T02:51:50.883Z,101535.34
2018-12-12T02:54:31.708Z,101539.98
2018-12-12T02:57:12.745Z,101536.17
2018-12-12T02:59:49.162Z,101548.47
2018-12-12T03:02:32.745Z,101534.83
2018-12-12T03:05:05.143Z,101533.17
2018-12-12T03:07:46.668Z,101541.36
2018-12-12T03:10:16.174Z,101541.11
2018-12-12T03:12:51.107Z,101553.94
2018-12-12T03:15:25.964Z,101548.75
2018-12-12T03:17:57.282Z,101550.11
2018-12-12T03:20:38.624Z,101508.02
2018-12-12T03:23:08.224Z,101559.94
2018-12-12T03:28:45.740Z,101554.47
2018-12-12T03:31:30.815Z,101553.11
2018-12-12T03:34:00.413Z,101553.11
2018-12-12T03:36:32.423Z,101550.66
2018-12-12T03:42:19.829Z,101555.03
2018-12-12T03:44:49.478Z,101549.56
2018-12-12T03:47:27.944Z,101556.94
2018-12-12T03:50:01.904Z,101544.94
2018-12-12T03:52:33.426Z,101550.41
2018-12-12T03:55:07.446Z,101555.59
2018-12-12T04:00:54.778Z,101565.16
2018-12-12T04:06:37.829Z,101547.16
2018-12-12T04:09:21.150Z,101555.89
2018-12-12T04:12:15.535Z,101554.28
2018-12-12T04:14:56.415Z,101553.45
2018-12-12T04:20:32.556Z,101554.00
2018-12-12T04:26:20.386Z,101540.37
2018-12-12T04:28:59.174Z,101538.46
2018-12-12T04:31:39.794Z,101543.38
2018-12-12T04:34:21.468Z,101538.72
2018-12-12T04:36:56.381Z,101537.09
2018-12-12T04:39:54.695Z,101533.55
2018-12-12T04:45:46.637Z,101536.03
2018-12-12T04:51:37.863Z,101533.30
2018-12-12T04:57:27.966Z,101532.20
2018-12-12T05:03:18.849Z,101534.64
2018-12-12T05:08:53.624Z,101542.00
2018-12-12T05:11:21.921Z,101546.90
2018-12-12T05:14:06.588Z,101496.60
2018-12-12T05:19:41.031Z,101551.24
2018-12-12T05:25:19.369Z,101552.84
2018-12-12T05:43:34.893Z,101560.39
2018-12-12T05:58:27.869Z,101565.13
2018-12-12T06:10:22.231Z,101567.98
2018-12-12T06:12:52.197Z,101568.52
2018-12-12T06:21:39.591Z,101576.97
2018-12-12T06:30:20.583Z,101587.62
2018-12-12T06:32:58.793Z,101586.81
2018-12-12T06:35:27.040Z,101592.55
2018-12-12T06:37:55.312Z,101586.81
2018-12-12T06:40:23.615Z,101598.52
2018-12-12T06:42:53.588Z,101592.82
2018-12-12T06:48:28.103Z,101594.19
2018-12-12T06:57:11.537Z,101602.67
2018-12-12T06:59:43.186Z,101601.03
2018-12-12T07:05:19.419Z,101611.12
2018-12-12T07:07:56.003Z,101607.31
2018-12-12T07:10:30.807Z,101606.52
2018-12-12T07:13:02.890Z,101609.23
2018-12-12T07:15:34.195Z,101607.59
2018-12-12T07:18:15.046Z,101610.04
2018-12-12T07:20:49.342Z,101604.59
2018-12-12T07:23:20.693Z,101602.95
2018-12-12T07:26:02.058Z,101608.95
2018-12-12T07:28:44.609Z,101605.15
2018-12-12T07:31:15.931Z,101605.95
2018-12-12T07:33:49.934Z,101613.84
2018-12-12T07:36:30.640Z,101607.31
2018-12-12T07:39:17.740Z,101559.16
2018-12-12T07:41:43.280Z,101607.59
2018-12-12T07:44:23.952Z,101613.57
2018-12-12T07:47:05.228Z,101613.05
2018-12-12T07:49:46.290Z,101617.10
2018-12-12T07:52:20.568Z,101616.27
2018-12-12T07:55:01.430Z,101606.10
2018-12-12T07:57:31.159Z,101630.09
2018-12-12T08:00:11.212Z,101631.46
2018-12-12T08:05:21.321Z,101631.73
2018-12-12T08:08:02.062Z,101633.38
2018-12-12T08:10:42.934Z,101632.58
2018-12-12T08:13:17.534Z,101633.42
2018-12-12T08:15:58.907Z,101638.62
2018-12-12T08:18:28.837Z,101640.86
2018-12-12T08:21:10.328Z,101638.41
2018-12-12T08:23:41.938Z,101640.64
2018-12-12T08:26:23.502Z,101641.76
2018-12-12T08:29:04.617Z,101649.13
2018-12-12T08:31:38.644Z,101642.06
2018-12-12T08:34:13.394Z,101640.20
2018-12-12T08:36:47.433Z,101641.06
2018-12-12T08:39:28.346Z,101641.38
2018-12-12T08:42:02.773Z,101645.48
2018-12-12T08:47:43.277Z,101648.82
2018-12-12T08:50:30.985Z,101654.58
2018-12-12T08:53:03.157Z,101657.60
2018-12-12T08:55:44.435Z,101657.90
2018-12-12T08:58:25.654Z,101652.73
2018-12-12T09:01:06.773Z,101652.50
2018-12-12T09:03:44.845Z,101656.91
2018-12-12T09:06:25.600Z,101661.58
2018-12-12T09:08:55.174Z,101655.04
2018-12-12T09:11:27.321Z,101656.72
2018-12-12T09:13:57.462Z,101650.45
2018-12-12T09:16:38.821Z,101651.01
2018-12-12T09:19:19.886Z,101650.47
2018-12-12T09:22:00.786Z,101653.76
2018-12-12T09:24:41.874Z,101658.45
2018-12-12T09:27:11.656Z,101657.37
2018-12-12T09:29:46.584Z,101658.20
2018-12-12T09:32:21.486Z,101660.66
2018-12-12T09:34:52.779Z,101660.37
2018-12-12T09:37:33.441Z,101658.19
2018-12-12T09:40:14.527Z,101664.50
2018-12-12T09:42:44.131Z,101666.41
2018-12-12T09:45:24.781Z,101662.30
2018-12-12T09:48:05.873Z,101666.38
2018-12-12T09:50:37.458Z,101666.09
2018-12-12T09:53:22.514Z,101661.45
2018-12-12T09:56:07.549Z,101665.25
2018-12-12T09:58:48.568Z,101664.70
2018-12-12T10:01:33.216Z,101672.63
2018-12-12T10:07:54.845Z,101661.91
2018-12-12T10:10:29.502Z,101657.22
2018-12-12T10:13:13.998Z,101666.52
2018-12-12T10:15:52.093Z,101660.72
2018-12-12T10:18:33.092Z,101660.97
2018-12-12T10:21:13.922Z,101667.23
2018-12-12T10:23:50.296Z,101652.97
2018-12-12T10:26:20.470Z,101654.85
2018-12-12T10:28:56.893Z,101655.36
2018-12-12T10:31:26.821Z,101655.29
2018-12-12T10:33:58.799Z,101649.24
2018-12-12T10:36:42.088Z,101650.84
2018-12-12T10:39:13.614Z,101649.17
2018-12-12T10:41:55.027Z,101635.70
2018-12-12T10:44:36.124Z,101638.66
2018-12-12T10:47:10.536Z,101632.61
2018-12-12T10:49:52.127Z,101629.33
2018-12-12T10:52:33.111Z,101634.23
2018-12-12T10:55:07.498Z,101632.03
2018-12-12T10:57:41.688Z,101627.88
2018-12-12T11:00:16.058Z,101630.34
2018-12-12T11:02:50.230Z,101624.02
2018-12-12T11:05:24.657Z,101617.97
2018-12-12T11:08:03.032Z,101621.81
2018-12-12T11:10:44.639Z,101612.74
2018-12-12T11:13:26.298Z,101605.31
2018-12-12T11:16:11.122Z,101560.36
2018-12-12T11:18:56.545Z,101605.58
2018-12-12T11:21:28.417Z,101595.94
2018-12-12T11:24:09.513Z,101590.77
2018-12-12T11:26:59.089Z,101592.13
2018-12-12T11:29:44.141Z,101588.02
2018-12-12T11:32:25.098Z,101592.39
2018-12-12T11:35:07.777Z,101587.98
2018-12-12T11:37:37.870Z,101578.38
2018-12-12T11:40:12.505Z,101575.93
2018-12-12T11:42:53.982Z,101581.14
2018-12-12T11:45:48.360Z,101576.72
2018-12-12T11:48:31.821Z,101532.27
2018-12-12T11:51:16.591Z,101571.49
2018-12-12T11:53:46.043Z,101567.64
2018-12-12T11:56:18.178Z,101566.53
2018-12-12T11:58:53.043Z,101562.69
2018-12-12T12:01:33.849Z,101561.30
2018-12-12T12:04:16.771Z,101521.73
2018-12-12T12:06:54.276Z,101565.63
2018-12-12T12:09:26.217Z,101564.21
2018-12-12T12:12:02.968Z,101563.35
2018-12-12T12:14:34.285Z,101557.80
2018-12-12T12:17:06.155Z,101554.73
2018-12-12T12:19:35.470Z,101556.56
2018-12-12T12:22:06.670Z,101549.05
2018-12-12T12:24:34.962Z,101550.03
2018-12-12T12:27:16.107Z,101548.05
2018-12-12T12:29:59.540Z,101544.67
2018-12-12T12:32:53.320Z,101544.34
2018-12-12T12:35:22.821Z,101543.49
2018-12-12T12:37:57.598Z,101543.49
2018-12-12T12:40:45.448Z,101544.61
2018-12-12T12:43:26.404Z,101538.33
2018-12-12T12:45:58.237Z,101533.69
2018-12-12T12:48:43.387Z,101534.54
2018-12-12T12:51:26.943Z,101542.52
2018-12-12T12:54:11.483Z,101531.02
2018-12-12T12:56:55.994Z,101493.25
2018-12-12T12:59:27.676Z,101520.30
2018-12-12T13:02:11.075Z,101521.08
2018-12-12T13:04:55.714Z,101514.19
2018-12-12T13:07:23.992Z,101513.28
2018-12-12T13:10:12.025Z,101514.92
2018-12-12T13:12:56.824Z,101476.51
2018-12-12T13:15:40.356Z,101513.80
2018-12-12T13:18:21.656Z,101465.34
2018-12-12T13:21:06.989Z,101512.10
2018-12-12T13:23:45.194Z,101501.95
2018-12-12T13:26:28.356Z,101463.32
2018-12-12T13:29:12.863Z,101465.45
2018-12-12T13:31:42.617Z,101501.89
2018-12-12T13:34:27.782Z,101496.14
2018-12-12T13:37:10.477Z,101497.52
2018-12-12T13:39:38.769Z,101498.63
2018-12-12T13:42:07.033Z,101498.63
2018-12-12T13:44:48.519Z,101492.08
2018-12-12T13:47:36.579Z,101490.47
2018-12-12T13:50:11.011Z,101489.14
2018-12-12T13:52:42.363Z,101492.75
2018-12-12T13:55:24.524Z,101482.61
2018-12-12T13:58:06.131Z,101471.66
2018-12-12T14:00:40.073Z,101478.26
2018-12-12T14:03:24.623Z,101476.41
2018-12-12T14:05:56.383Z,101477.03
2018-12-12T14:08:37.036Z,101440.60
2018-12-12T14:11:06.680Z,101477.17
2018-12-12T14:13:41.433Z,101476.97
2018-12-12T14:16:24.891Z,101475.14
2018-12-12T14:18:59.351Z,101474.13
2018-12-12T14:21:42.486Z,101415.69
2018-12-12T14:24:23.362Z,101473.46
2018-12-12T14:26:51.655Z,101478.44
2018-12-12T14:29:19.943Z,101471.31
2018-12-12T14:31:48.229Z,101472.42
2018-12-12T14:34:16.536Z,101481.77
2018-12-12T14:36:57.595Z,101423.16
2018-12-12T14:39:25.906Z,101474.43
2018-12-12T14:42:06.741Z,101472.23
2018-12-12T14:44:50.058Z,101468.98
2018-12-12T14:47:18.351Z,101473.95
2018-12-12T14:49:46.633Z,101468.25
2018-12-12T14:52:30.139Z,101428.86
2018-12-12T14:55:22.202Z,101468.95
2018-12-12T14:58:03.046Z,101477.77
2018-12-12T15:00:46.492Z,101420.42
2018-12-12T15:03:27.150Z,101431.91
2018-12-12T15:06:10.617Z,101429.27
2018-12-12T15:08:39.801Z,101468.58
2018-12-12T15:11:20.855Z,101449.05
2018-12-12T15:14:05.428Z,101470.34
2018-12-12T15:16:46.956Z,101426.02
2018-12-12T15:19:15.210Z,101465.06
2018-12-12T15:22:00.094Z,101469.50
2018-12-12T15:24:44.691Z,101469.57
2018-12-12T15:27:29.224Z,101478.10
2018-12-12T15:29:57.491Z,101480.63
2018-12-12T15:32:25.780Z,101477.67
2018-12-12T15:34:54.066Z,101477.18
2018-12-12T15:37:37.503Z,101435.49
2018-12-12T15:40:20.982Z,101435.80
2018-12-12T15:42:49.296Z,101490.11
2018-12-12T15:45:17.567Z,101489.59
2018-12-12T15:47:58.798Z,101488.25
2018-12-12T15:50:27.069Z,101491.79
2018-12-12T15:53:08.040Z,101497.23
2018-12-12T15:55:36.438Z,101498.33
2018-12-12T15:58:19.863Z,101492.88
2018-12-12T16:00:48.226Z,101500.77
2018-12-12T16:03:16.714Z,101504.61
2018-12-12T16:05:44.963Z,101502.95
2018-12-12T16:08:13.251Z,101498.83
2018-12-12T16:10:41.505Z,101499.91
2018-12-12T16:13:09.826Z,101503.17
2018-12-12T16:15:38.073Z,101504.25
2018-12-12T16:18:06.369Z,101493.56
2018-12-12T16:20:34.637Z,101501.20
2018-12-12T16:23:02.924Z,101505.00
2018-12-12T16:25:31.201Z,101501.98
2018-12-12T16:27:59.488Z,101506.30
2018-12-12T16:30:27.785Z,101507.09
2018-12-12T16:33:08.645Z,101507.63
2018-12-12T16:41:52.166Z,101505.91
2018-12-12T16:47:27.045Z,101504.21
2018-12-12T16:49:55.371Z,101501.46
2018-12-12T16:55:31.024Z,101509.86
2018-12-12T16:57:59.293Z,101510.63
2018-12-12T17:00:27.614Z,101513.05
2018-12-12T17:02:55.883Z,101510.84
2018-12-12T17:08:32.644Z,101529.07
2018-12-12T17:11:00.909Z,101520.87
2018-12-12T17:13:29.200Z,101526.31
2018-12-12T17:15:57.498Z,101527.36
2018-12-12T17:18:25.774Z,101523.56
2018-12-12T17:20:54.095Z,101523.24
2018-12-12T17:23:22.351Z,101527.84
2018-12-12T17:25:50.642Z,101525.09
2018-12-12T17:28:18.905Z,101526.17
2018-12-12T17:30:50.188Z,101527.25
2018-12-12T17:39:31.287Z,101531.81
2018-12-12T17:41:59.589Z,101530.41
2018-12-12T17:44:27.873Z,101532.86
2018-12-12T17:46:56.273Z,101529.58
2018-12-12T17:49:24.558Z,101528.21
2018-12-12T17:54:58.462Z,101513.73
2018-12-12T17:57:26.768Z,101524.34
2018-12-12T17:59:55.025Z,101522.97
2018-12-12T18:02:25.209Z,101522.41
2018-12-12T18:08:05.663Z,101525.41
2018-12-12T18:10:36.883Z,101533.05
2018-12-12T18:34:05.956Z,101524.61
2018-12-12T18:36:37.934Z,101519.13
2018-12-12T18:42:15.900Z,101522.93
2018-12-12T18:44:56.969Z,101466.02
2018-12-12T18:56:50.593Z,101523.77
2018-12-12T19:05:28.319Z,101512.72
2018-12-12T19:07:59.934Z,101516.28
2018-12-12T19:10:28.233Z,101528.02
2018-12-12T19:13:00.339Z,101519.33
2018-12-12T19:15:28.626Z,101516.36
2018-12-12T19:42:44.778Z,101507.99
2018-12-12T19:45:13.065Z,101497.09
2018-12-12T20:06:20.069Z,101496.37
2018-12-12T20:08:56.800Z,101499.92
2018-12-12T20:11:25.236Z,101502.39
2018-12-12T20:13:56.534Z,101496.94
2018-12-12T20:16:24.840Z,101503.22
2018-12-12T20:22:00.129Z,101496.98
2018-12-12T20:24:28.423Z,101496.73
2018-12-12T20:30:17.342Z,101500.28
2018-12-12T20:48:25.404Z,101503.63
2018-12-12T20:54:07.496Z,101504.45
2018-12-12T20:56:35.754Z,101504.20
2018-12-12T21:08:22.939Z,101500.95
2018-12-12T21:10:51.288Z,101497.68
2018-12-12T21:13:19.565Z,101499.87
2018-12-12T21:15:47.948Z,101500.70
2018-12-12T21:21:22.042Z,101486.79
2018-12-12T21:26:57.527Z,101492.26
2018-12-12T21:29:25.810Z,101490.64
2018-12-12T21:35:00.341Z,101484.63
2018-12-12T21:40:49.970Z,101486.27
2018-12-12T21:46:30.550Z,101478.39
2018-12-12T21:52:04.952Z,101471.30
2018-12-12T21:54:33.299Z,101469.12
2018-12-12T21:57:09.794Z,101469.67
2018-12-12T22:02:44.896Z,101461.75
2018-12-12T22:05:13.166Z,101463.39
2018-12-12T22:10:47.444Z,101459.57
2018-12-12T22:13:15.768Z,101460.65
2018-12-12T22:15:50.548Z,101450.29
2018-12-12T22:18:31.424Z,101449.73
2018-12-12T22:21:01.048Z,101439.92
2018-12-12T22:26:43.145Z,101433.89
2018-12-12T22:29:24.282Z,101433.64
2018-12-12T22:32:05.608Z,101430.64
2018-12-12T22:34:46.717Z,101438.00
2018-12-12T22:37:16.366Z,101443.99
2018-12-12T22:39:57.109Z,101446.20
2018-12-12T22:42:28.760Z,101436.64
2018-12-12T22:44:58.681Z,101434.72
2018-12-12T22:47:30.837Z,101431.45
2018-12-12T22:50:11.515Z,101430.91
2018-12-12T22:52:40.957Z,101430.09
2018-12-12T22:55:15.649Z,101426.27
2018-12-12T22:57:49.628Z,101422.19
2018-12-12T23:03:04.255Z,101427.34
2018-12-12T23:05:45.829Z,101420.80
2018-12-12T23:08:20.315Z,101422.42
2018-12-12T23:10:54.328Z,101419.96
2018-12-12T23:13:25.678Z,101424.30
2018-12-12T23:16:07.202Z,101421.02
2018-12-12T23:18:48.176Z,101422.94
2018-12-12T23:21:29.240Z,101407.38
2018-12-12T23:23:58.891Z,101405.44
2018-12-12T23:26:39.682Z,101404.62
2018-12-12T23:29:14.074Z,101404.59
2018-12-12T23:31:55.048Z,101402.39
2018-12-12T23:34:26.463Z,101413.80
2018-12-12T23:37:08.004Z,101404.79
2018-12-12T23:39:37.527Z,101403.11
2018-12-12T23:42:19.062Z,101399.01
2018-12-12T23:44:54.415Z,101395.41
2018-12-12T23:47:26.084Z,101392.11
2018-12-12T23:50:01.936Z,101390.72
2018-12-12T23:52:31.465Z,101384.45
2018-12-12T23:55:12.889Z,101380.36
2018-12-12T23:57:47.272Z,101380.11
